createdAt,value
2023-01-22T00:02:13.189Z,96395.47
2023-01-22T00:04:41.787Z,96382.53
2023-01-22T00:07:10.005Z,96385.97
2023-01-22T00:09:38.252Z,96398.28
2023-01-22T00:12:30.846Z,96395.66
2023-01-22T00:14:59.153Z,96392.84
2023-01-22T00:17:28.777Z,96392.84
2023-01-22T00:19:57.021Z,96390.41
2023-01-22T00:22:25.235Z,96393.03
2023-01-22T00:24:53.534Z,96389.59
2023-01-22T00:27:21.719Z,96401.88
2023-01-22T00:29:49.922Z,96385.31
2023-01-22T00:32:18.778Z,96392.22
2023-01-22T00:34:52.361Z,96392.22
2023-01-22T00:37:21.213Z,96388.94
2023-01-22T00:39:49.392Z,96390.56
2023-01-22T00:42:17.664Z,96394.19
2023-01-22T00:44:46.195Z,96392.38
2023-01-22T00:47:14.479Z,96385.31
2023-01-22T00:49:42.730Z,96387.31
2023-01-22T00:52:12.373Z,96386.50
2023-01-22T00:54:40.611Z,96389.28
2023-01-22T00:57:08.872Z,96389.69
2023-01-22T00:59:37.371Z,96387.66
2023-01-22T01:02:06.683Z,96387.31
2023-01-22T01:04:34.986Z,96392.13
2023-01-22T01:07:03.196Z,96396.34
2023-01-22T01:09:32.772Z,96395.19
2023-01-22T01:12:01.756Z,96399.63
2023-01-22T01:14:30.126Z,96408.88
2023-01-22T01:16:58.959Z,96405.25
2023-01-22T01:19:27.311Z,96398.16
2023-01-22T01:21:55.521Z,96407.66
2023-01-22T01:24:24.785Z,96398.63
2023-01-22T01:26:54.668Z,96408.31
2023-01-22T01:29:22.958Z,96400.00
2023-01-22T01:31:53.425Z,96400.00
2023-01-22T01:34:22.068Z,96397.81
2023-01-22T01:36:50.255Z,96411.94
2023-01-22T01:39:19.799Z,96400.78
2023-01-22T01:41:48.936Z,96407.31
2023-01-22T01:44:19.404Z,96405.88
2023-01-22T01:46:49.373Z,96415.84
2023-01-22T01:49:19.824Z,96412.91
2023-01-22T01:51:48.070Z,96415.38
2023-01-22T01:54:16.729Z,96419.97
2023-01-22T01:56:46.496Z,96419.38
2023-01-22T01:59:15.963Z,96422.81
2023-01-22T02:01:45.593Z,96423.97
2023-01-22T02:04:13.866Z,96424.63
2023-01-22T02:06:42.323Z,96422.16
2023-01-22T02:09:10.828Z,96423.16
2023-01-22T02:11:40.046Z,96437.53
2023-01-22T02:14:09.729Z,96437.53
2023-01-22T02:16:39.270Z,96442.78
2023-01-22T02:19:08.895Z,96435.28
2023-01-22T02:21:39.674Z,96438.72
2023-01-22T02:24:09.800Z,96440.53
2023-01-22T02:26:39.591Z,96436.75
2023-01-22T02:29:09.422Z,96443.25
2023-01-22T02:31:38.217Z,96444.25
2023-01-22T02:34:07.034Z,96447.03
2023-01-22T02:36:38.839Z,96449.88
2023-01-22T02:39:07.262Z,96447.69
2023-01-22T02:41:35.450Z,96440.81
2023-01-22T02:44:04.074Z,96435.72
2023-01-22T02:46:32.525Z,96437.53
2023-01-22T02:49:00.664Z,96436.94
2023-01-22T02:51:29.183Z,96439.97
2023-01-22T02:54:00.224Z,96435.56
2023-01-22T02:56:28.511Z,96444.81
2023-01-22T02:58:56.750Z,96434.13
2023-01-22T03:01:25.616Z,96432.28
2023-01-22T03:03:56.651Z,96434.91
2023-01-22T03:06:26.192Z,96431.50
2023-01-22T03:08:55.210Z,96435.28
2023-01-22T03:11:25.140Z,96433.75
2023-01-22T03:14:11.674Z,96436.19
2023-01-22T03:16:57.200Z,96435.94
2023-01-22T03:19:43.530Z,96433.47
2023-01-22T03:22:18.396Z,96439.09
2023-01-22T03:24:50.509Z,96441.72
2023-01-22T03:27:21.028Z,96440.53
2023-01-22T03:29:49.631Z,96447.59
2023-01-22T03:32:19.827Z,96444.34
2023-01-22T03:34:48.104Z,96438.09
2023-01-22T03:37:16.759Z,96437.91
2023-01-22T03:39:48.237Z,96440.38
2023-01-22T03:42:28.164Z,96443.25
2023-01-22T03:44:56.739Z,96445.53
2023-01-22T03:47:26.366Z,96441.09
2023-01-22T03:49:54.564Z,96445.69
2023-01-22T03:52:22.944Z,96453.22
2023-01-22T03:54:51.231Z,96449.41
2023-01-22T03:57:19.745Z,96448.41
2023-01-22T03:59:49.381Z,96456.84
2023-01-22T04:02:18.343Z,96456.66
2023-01-22T04:05:04.088Z,96467.97
2023-01-22T04:07:32.365Z,96465.72
2023-01-22T04:10:00.998Z,96471.31
2023-01-22T04:12:29.266Z,96463.44
2023-01-22T04:14:58.997Z,96472.94
2023-01-22T04:17:28.055Z,96465.88
2023-01-22T04:20:19.995Z,96481.81
2023-01-22T04:23:01.066Z,96475.91
2023-01-22T04:25:29.524Z,96472.47
2023-01-22T04:27:58.005Z,96478.19
2023-01-22T04:30:28.280Z,96483.44
2023-01-22T04:33:06.934Z,96483.63
2023-01-22T04:35:46.339Z,96484.09
2023-01-22T04:38:14.952Z,96482.28
2023-01-22T04:40:43.391Z,96484.00
2023-01-22T04:43:12.444Z,96481.00
2023-01-22T04:45:42.078Z,96482.16
2023-01-22T04:48:11.301Z,96484.16
2023-01-22T04:50:41.346Z,96484.78
2023-01-22T04:53:12.488Z,96474.91
2023-01-22T04:55:42.010Z,96476.91
2023-01-22T04:58:11.812Z,96490.41
2023-01-22T05:00:42.759Z,96488.03
2023-01-22T05:03:12.990Z,96492.13
2023-01-22T05:05:43.593Z,96502.63
2023-01-22T05:08:12.418Z,96506.72
2023-01-22T05:10:40.652Z,96500.00
2023-01-22T05:13:11.704Z,96501.63
2023-01-22T05:15:42.041Z,96508.34
2023-01-22T05:18:13.550Z,96504.09
2023-01-22T05:20:48.761Z,96507.88
2023-01-22T05:23:18.404Z,96508.69
2023-01-22T05:25:49.316Z,96512.50
2023-01-22T05:28:22.083Z,96515.94
2023-01-22T05:31:21.131Z,96512.50
2023-01-22T05:33:57.860Z,96509.69
2023-01-22T05:36:26.296Z,96511.31
2023-01-22T05:38:57.371Z,96515.28
2023-01-22T05:41:27.867Z,96510.50
2023-01-22T05:43:57.555Z,96524.44
2023-01-22T05:46:31.274Z,96519.84
2023-01-22T05:49:18.256Z,96519.84
2023-01-22T05:51:46.635Z,96522.47
2023-01-22T05:54:15.753Z,96527.06
2023-01-22T05:56:44.858Z,96521.47
2023-01-22T05:59:13.708Z,96522.72
2023-01-22T06:01:45.511Z,96527.72
2023-01-22T06:04:13.963Z,96526.44
2023-01-22T06:06:42.222Z,96527.72
2023-01-22T06:09:13.017Z,96519.53
2023-01-22T06:11:48.128Z,96525.63
2023-01-22T06:14:16.945Z,96526.16
2023-01-22T06:16:46.775Z,96527.78
2023-01-22T06:19:40.789Z,96527.78
2023-01-22T06:22:09.586Z,96526.00
2023-01-22T06:24:47.680Z,96536.50
2023-01-22T06:27:18.257Z,96531.25
2023-01-22T06:29:54.705Z,96537.47
2023-01-22T06:32:24.598Z,96537.28
2023-01-22T06:34:53.660Z,96540.72
2023-01-22T06:37:23.909Z,96547.78
2023-01-22T06:39:53.659Z,96542.53
2023-01-22T06:42:29.690Z,96546.78
2023-01-22T06:44:58.401Z,96549.25
2023-01-22T06:47:32.878Z,96550.41
2023-01-22T06:50:03.206Z,96557.09
2023-01-22T06:52:31.443Z,96557.50
2023-01-22T06:55:00.065Z,96561.44
2023-01-22T06:57:28.272Z,96578.00
2023-01-22T06:59:56.631Z,96576.22
2023-01-22T07:02:25.188Z,96584.06
2023-01-22T07:04:54.821Z,96588.34
2023-01-22T07:07:23.436Z,96591.59
2023-01-22T07:09:51.922Z,96592.41
2023-01-22T07:12:20.118Z,96601.28
2023-01-22T07:14:48.317Z,96603.72
2023-01-22T07:17:16.553Z,96607.63
2023-01-22T07:19:44.879Z,96611.06
2023-01-22T07:22:14.445Z,96611.56
2023-01-22T07:24:42.927Z,96623.66
2023-01-22T07:27:11.144Z,96621.69
2023-01-22T07:29:39.341Z,96616.16
2023-01-22T07:32:07.652Z,96622.66
2023-01-22T07:34:40.115Z,96629.09
2023-01-22T07:37:13.278Z,96623.84
2023-01-22T07:39:48.208Z,96622.88
2023-01-22T07:42:17.120Z,96630.38
2023-01-22T07:44:45.353Z,96632.56
2023-01-22T07:47:13.511Z,96634.53
2023-01-22T07:49:41.802Z,96625.50
2023-01-22T07:52:10.442Z,96633.66
2023-01-22T07:54:38.686Z,96631.50
2023-01-22T07:57:08.373Z,96641.53
2023-01-22T07:59:36.583Z,96633.13
2023-01-22T08:02:04.870Z,96632.94
2023-01-22T08:04:33.039Z,96642.44
2023-01-22T08:07:01.485Z,96643.63
2023-01-22T08:09:29.688Z,96639.38
2023-01-22T08:11:57.921Z,96644.41
2023-01-22T08:14:27.472Z,96644.88
2023-01-22T08:16:55.790Z,96646.69
2023-01-22T08:19:24.304Z,96654.56
2023-01-22T08:21:52.515Z,96660.00
2023-01-22T08:24:20.707Z,96659.56
2023-01-22T08:26:48.924Z,96658.09
2023-01-22T08:29:43.807Z,96666.25
2023-01-22T08:32:12.194Z,96660.81
2023-01-22T08:34:40.349Z,96657.38
2023-01-22T08:37:08.589Z,96664.09
2023-01-22T08:39:36.785Z,96662.94
2023-01-22T08:42:05.143Z,96671.63
2023-01-22T08:44:33.355Z,96680.78
2023-01-22T08:47:03.270Z,96678.44
2023-01-22T08:49:31.694Z,96681.72
2023-01-22T08:51:59.973Z,96676.91
2023-01-22T08:54:28.138Z,96688.06
2023-01-22T08:56:56.372Z,96689.41
2023-01-22T08:59:24.854Z,96690.94
2023-01-22T09:01:53.098Z,96687.31
2023-01-22T09:04:25.637Z,96694.22
2023-01-22T09:06:53.833Z,96697.81
2023-01-22T09:09:21.995Z,96696.00
2023-01-22T09:11:50.494Z,96702.53
2023-01-22T09:14:18.738Z,96701.72
2023-01-22T09:16:47.031Z,96705.81
2023-01-22T09:19:15.364Z,96704.00
2023-01-22T09:21:44.962Z,96701.03
2023-01-22T09:24:13.234Z,96701.47
2023-01-22T09:26:42.607Z,96707.38
2023-01-22T09:29:10.854Z,96708.50
2023-01-22T09:31:39.196Z,96709.75
2023-01-22T09:34:07.373Z,96711.22
2023-01-22T09:36:35.638Z,96705.78
2023-01-22T09:39:05.297Z,96715.75
2023-01-22T09:41:35.209Z,96720.66
2023-01-22T09:44:04.867Z,96725.28
2023-01-22T09:46:36.206Z,96733.31
2023-01-22T09:49:09.269Z,96724.00
2023-01-22T09:51:37.548Z,96727.81
2023-01-22T09:54:08.847Z,96731.53
2023-01-22T09:56:38.763Z,96735.78
2023-01-22T09:59:07.137Z,96741.50
2023-01-22T10:01:35.619Z,96735.13
2023-01-22T10:04:05.411Z,96729.88
2023-01-22T10:06:34.081Z,96735.63
2023-01-22T10:09:07.294Z,96732.97
2023-01-22T10:11:37.191Z,96738.34
2023-01-22T10:14:07.516Z,96735.25
2023-01-22T10:16:35.834Z,96730.00
2023-01-22T10:19:06.185Z,96735.44
2023-01-22T10:21:37.302Z,96736.44
2023-01-22T10:26:59.753Z,96730.00
2023-01-22T10:29:34.994Z,96726.84
2023-01-22T10:32:18.968Z,96719.00
2023-01-22T10:34:59.439Z,96721.72
2023-01-22T10:37:30.958Z,96725.63
2023-01-22T10:40:00.357Z,96726.88
2023-01-22T10:42:30.602Z,96726.06
2023-01-22T10:45:09.281Z,96724.72
2023-01-22T10:47:37.449Z,96718.81
2023-01-22T10:50:07.953Z,96719.16
2023-01-22T10:52:38.419Z,96730.72
2023-01-22T10:55:07.630Z,96721.34
2023-01-22T10:57:37.800Z,96721.78
2023-01-22T11:00:18.114Z,96717.00
2023-01-22T11:02:48.169Z,96724.81
2023-01-22T11:05:19.034Z,96728.53
2023-01-22T11:07:47.814Z,96725.53
2023-01-22T11:10:21.700Z,96724.38
2023-01-22T11:12:53.676Z,96730.88
2023-01-22T11:15:24.195Z,96730.88
2023-01-22T11:17:53.367Z,96736.88
2023-01-22T11:20:23.872Z,96738.88
2023-01-22T11:23:01.232Z,96741.66
2023-01-22T11:25:30.043Z,96743.38
2023-01-22T11:28:07.499Z,96737.13
2023-01-22T11:30:54.545Z,96734.84
2023-01-22T11:33:46.838Z,96740.47
2023-01-22T11:36:17.895Z,96745.28
2023-01-22T11:38:51.291Z,96732.56
2023-01-22T11:41:27.553Z,96737.56
2023-01-22T11:44:22.642Z,96747.34
2023-01-22T11:46:59.804Z,96736.31
2023-01-22T11:49:34.520Z,96737.66
2023-01-22T11:52:10.061Z,96750.09
2023-01-22T11:54:50.627Z,96753.59
2023-01-22T11:57:21.380Z,96745.28
2023-01-22T12:00:18.046Z,96740.59
2023-01-22T12:03:08.312Z,96743.78
2023-01-22T12:05:40.443Z,96743.59
2023-01-22T12:08:18.515Z,96732.97
2023-01-22T12:11:00.542Z,96730.72
2023-01-22T12:13:37.496Z,96722.63
2023-01-22T12:16:10.717Z,96712.09
2023-01-22T12:19:03.903Z,96713.81
2023-01-22T12:21:40.464Z,96712.91
2023-01-22T12:24:12.228Z,96719.63
2023-01-22T12:26:44.701Z,96716.19
2023-01-22T12:29:16.615Z,96705.94
2023-01-22T12:31:49.187Z,96709.22
2023-01-22T12:34:20.174Z,96709.22
2023-01-22T12:36:48.645Z,96704.94
2023-01-22T12:39:21.116Z,96703.78
2023-01-22T12:41:53.455Z,96718.09
2023-01-22T12:44:29.425Z,96717.63
2023-01-22T12:47:04.772Z,96724.91
2023-01-22T12:49:33.201Z,96716.06
2023-01-22T12:52:01.550Z,96716.88
2023-01-22T12:54:32.399Z,96718.88
2023-01-22T12:57:12.513Z,96726.59
2023-01-22T12:59:46.744Z,96736.28
2023-01-22T13:02:35.944Z,96733.91
2023-01-22T13:05:19.959Z,96724.28
2023-01-22T13:07:48.467Z,96727.09
2023-01-22T13:10:29.473Z,96739.59
2023-01-22T13:12:59.055Z,96742.75
2023-01-22T13:15:29.077Z,96743.75
2023-01-22T13:18:07.017Z,96735.50
2023-01-22T13:20:37.711Z,96736.78
2023-01-22T13:23:07.064Z,96744.38
2023-01-22T13:25:35.408Z,96734.53
2023-01-22T13:28:04.143Z,96740.94
2023-01-22T13:30:32.562Z,96748.66
2023-01-22T13:33:06.827Z,96749.47
2023-01-22T13:35:37.105Z,96748.34
2023-01-22T13:38:05.415Z,96746.72
2023-01-22T13:40:46.403Z,96748.34
2023-01-22T13:43:19.742Z,96746.19
2023-01-22T13:45:48.412Z,96754.91
2023-01-22T13:48:20.132Z,96751.28
2023-01-22T13:50:51.415Z,96760.63
2023-01-22T13:53:28.948Z,96761.25
2023-01-22T13:55:57.192Z,96752.91
2023-01-22T13:58:47.917Z,96765.50
2023-01-22T14:01:28.289Z,96765.88
2023-01-22T14:04:01.792Z,96763.44
2023-01-22T14:06:30.423Z,96763.25
2023-01-22T14:08:59.132Z,96766.22
2023-01-22T14:11:27.487Z,96772.94
2023-01-22T14:13:55.870Z,96761.97
2023-01-22T14:16:24.315Z,96768.84
2023-01-22T14:18:52.670Z,96770.84
2023-01-22T14:21:22.386Z,96758.69
2023-01-22T14:23:50.888Z,96764.13
2023-01-22T14:26:21.097Z,96765.47
2023-01-22T14:28:49.298Z,96769.53
2023-01-22T14:31:17.728Z,96764.94
2023-01-22T14:33:45.966Z,96767.22
2023-01-22T14:36:14.244Z,96764.75
2023-01-22T14:38:44.118Z,96768.22
2023-01-22T14:41:12.346Z,96763.78
2023-01-22T14:43:40.589Z,96762.69
2023-01-22T14:46:08.909Z,96765.09
2023-01-22T14:48:37.353Z,96763.66
2023-01-22T14:51:10.065Z,96763.84
2023-01-22T14:53:38.437Z,96771.25
2023-01-22T14:56:08.771Z,96767.97
2023-01-22T14:58:37.390Z,96764.88
2023-01-22T15:01:15.803Z,96762.25
2023-01-22T15:03:43.991Z,96768.16
2023-01-22T15:06:12.538Z,96770.78
2023-01-22T15:08:40.815Z,96769.16
2023-01-22T15:11:13.290Z,96768.69
2023-01-22T15:13:41.540Z,96764.06
2023-01-22T15:16:10.841Z,96763.91
2023-01-22T15:18:39.295Z,96756.34
2023-01-22T15:21:07.834Z,96750.81
2023-01-22T15:23:36.159Z,96765.94
2023-01-22T15:26:06.161Z,96755.59
2023-01-22T15:28:35.900Z,96756.41
2023-01-22T15:31:07.821Z,96763.31
2023-01-22T15:33:36.650Z,96765.13
2023-01-22T15:36:05.264Z,96762.84
2023-01-22T15:38:33.512Z,96768.09
2023-01-22T15:41:06.462Z,96771.69
2023-01-22T15:43:36.135Z,96775.47
2023-01-22T15:46:04.508Z,96785.19
2023-01-22T15:48:33.145Z,96787.34
2023-01-22T15:51:10.985Z,96788.84
2023-01-22T15:53:39.245Z,96789.03
2023-01-22T15:56:08.101Z,96786.41
2023-01-22T15:58:37.729Z,96791.81
2023-01-22T16:01:06.517Z,96799.53
2023-01-22T16:03:34.859Z,96794.44
2023-01-22T16:06:10.655Z,96792.81
2023-01-22T16:08:38.947Z,96803.97
2023-01-22T16:11:07.431Z,96803.59
2023-01-22T16:13:37.084Z,96792.28
2023-01-22T16:16:09.893Z,96802.63
2023-01-22T16:18:38.314Z,96802.78
2023-01-22T16:21:07.649Z,96807.59
2023-01-22T16:23:37.446Z,96810.22
2023-01-22T16:26:06.909Z,96816.13
2023-01-22T16:28:35.550Z,96817.91
2023-01-22T16:31:09.664Z,96817.91
2023-01-22T16:33:38.437Z,96820.19
2023-01-22T16:36:07.980Z,96827.78
2023-01-22T16:38:36.847Z,96834.16
2023-01-22T16:41:15.799Z,96838.44
2023-01-22T16:43:48.338Z,96838.44
2023-01-22T16:46:19.334Z,96837.28
2023-01-22T16:48:47.683Z,96837.13
2023-01-22T16:51:18.380Z,96832.03
2023-01-22T16:53:46.578Z,96840.56
2023-01-22T16:56:15.317Z,96835.66
2023-01-22T16:58:43.537Z,96839.09
2023-01-22T17:01:13.738Z,96835.81
2023-01-22T17:03:43.911Z,96837.78
2023-01-22T17:06:26.122Z,96844.84
2023-01-22T17:08:54.688Z,96843.34
2023-01-22T17:11:22.935Z,96853.19
2023-01-22T17:13:51.161Z,96853.84
2023-01-22T17:16:19.561Z,96858.28
2023-01-22T17:18:49.200Z,96862.56
2023-01-22T17:21:19.245Z,96867.81
2023-01-22T17:23:47.911Z,96874.34
2023-01-22T17:26:16.945Z,96878.78
2023-01-22T17:28:46.008Z,96883.19
2023-01-22T17:31:15.579Z,96886.81
2023-01-22T17:33:44.207Z,96886.53
2023-01-22T17:36:14.985Z,96905.72
2023-01-22T17:38:43.420Z,96898.00
2023-01-22T17:41:14.243Z,96902.44
2023-01-22T17:43:43.749Z,96908.34
2023-01-22T17:46:12.961Z,96902.94
2023-01-22T17:48:41.411Z,96889.63
2023-01-22T17:51:10.866Z,96887.00
2023-01-22T17:53:41.577Z,96904.38
2023-01-22T17:56:11.046Z,96900.13
2023-01-22T17:58:39.387Z,96905.38
2023-01-22T18:01:08.807Z,96905.19
2023-01-22T18:03:37.232Z,96892.56
2023-01-22T18:06:05.888Z,96909.47
2023-01-22T18:08:34.907Z,96898.97
2023-01-22T18:11:08.014Z,96910.94
2023-01-22T18:13:36.618Z,96910.13
2023-01-22T18:16:05.578Z,96913.25
2023-01-22T18:18:34.299Z,96921.16
2023-01-22T18:21:02.515Z,96918.00
2023-01-22T18:23:30.756Z,96921.59
2023-01-22T18:25:59.934Z,96923.25
2023-01-22T18:28:30.017Z,96918.81
2023-01-22T18:30:58.341Z,96925.22
2023-01-22T18:33:26.966Z,96928.00
2023-01-22T18:35:55.174Z,96931.78
2023-01-22T18:38:26.249Z,96927.69
2023-01-22T18:40:54.503Z,96930.13
2023-01-22T18:43:22.858Z,96935.06
2023-01-22T18:45:52.819Z,96938.50
2023-01-22T18:48:22.217Z,96944.22
2023-01-22T18:50:52.945Z,96941.59
2023-01-22T18:53:21.502Z,96943.06
2023-01-22T18:55:49.870Z,96948.31
2023-01-22T18:58:30.662Z,96947.50
2023-01-22T19:01:01.502Z,96945.69
2023-01-22T19:03:29.858Z,96951.94
2023-01-22T19:06:00.700Z,96964.75
2023-01-22T19:08:29.830Z,96961.28
2023-01-22T19:11:04.328Z,96955.22
2023-01-22T19:13:35.233Z,96965.88
2023-01-22T19:16:06.533Z,96964.41
2023-01-22T19:18:35.231Z,96972.28
2023-01-22T19:21:05.702Z,96965.59
2023-01-22T19:23:34.461Z,96959.31
2023-01-22T19:26:07.649Z,96960.63
2023-01-22T19:28:36.303Z,96965.88
2023-01-22T19:31:06.215Z,96966.88
2023-01-22T19:33:34.530Z,96959.00
2023-01-22T19:36:02.770Z,96967.53
2023-01-22T19:38:31.072Z,96967.38
2023-01-22T19:41:00.627Z,96969.16
2023-01-22T19:43:28.918Z,96972.94
2023-01-22T19:45:57.141Z,96968.34
2023-01-22T19:48:26.921Z,96969.16
2023-01-22T19:50:59.334Z,96977.88
2023-01-22T19:53:27.619Z,96981.47
2023-01-22T19:55:56.242Z,96983.28
2023-01-22T19:58:24.604Z,96988.38
2023-01-22T20:00:54.482Z,96990.19
2023-01-22T20:03:23.452Z,96991.81
2023-01-22T20:05:53.195Z,96990.50
2023-01-22T20:08:21.859Z,96980.81
2023-01-22T20:10:51.176Z,96988.72
2023-01-22T20:13:19.527Z,96990.50
2023-01-22T20:15:47.910Z,97000.03
2023-01-22T20:18:16.316Z,97006.75
2023-01-22T20:20:44.641Z,96996.59
2023-01-22T20:23:15.159Z,96993.63
2023-01-22T20:25:43.380Z,96998.88
2023-01-22T20:28:13.575Z,96994.63
2023-01-22T20:30:43.251Z,97000.84
2023-01-22T20:33:11.985Z,97009.56
2023-01-22T20:35:41.919Z,97004.78
2023-01-22T20:38:10.251Z,97003.97
2023-01-22T20:40:42.132Z,97006.94
2023-01-22T20:43:10.319Z,97009.56
2023-01-22T20:45:38.569Z,97012.34
2023-01-22T20:48:07.140Z,97009.72
2023-01-22T20:50:35.713Z,97013.31
2023-01-22T20:53:06.306Z,97017.28
2023-01-22T20:55:34.505Z,97019.91
2023-01-22T20:58:04.154Z,97019.56
2023-01-22T21:00:32.398Z,97022.84
2023-01-22T21:03:00.983Z,97019.91
2023-01-22T21:05:30.002Z,97035.31
2023-01-22T21:07:58.269Z,97033.53
2023-01-22T21:10:26.653Z,97039.44
2023-01-22T21:12:54.905Z,97039.28
2023-01-22T21:15:26.180Z,97036.97
2023-01-22T21:17:54.896Z,97032.22
2023-01-22T21:20:23.105Z,97047.16
2023-01-22T21:22:51.317Z,97046.81
2023-01-22T21:25:19.529Z,97046.81
2023-01-22T21:27:49.287Z,97054.03
2023-01-22T21:30:18.997Z,97052.91
2023-01-22T21:32:52.608Z,97060.28
2023-01-22T21:35:20.819Z,97057.66
2023-01-22T21:37:49.025Z,97064.72
2023-01-22T21:40:19.326Z,97064.38
2023-01-22T21:43:05.584Z,97063.56
2023-01-22T21:45:51.410Z,97066.66
2023-01-22T21:48:21.041Z,97063.56
2023-01-22T21:50:49.530Z,97075.53
2023-01-22T21:53:17.769Z,97076.19
2023-01-22T21:55:51.442Z,97075.72
2023-01-22T21:58:19.660Z,97071.09
2023-01-22T22:00:48.259Z,97073.56
2023-01-22T22:03:17.132Z,97077.19
2023-01-22T22:05:56.061Z,97079.66
2023-01-22T22:08:24.208Z,97079.66
2023-01-22T22:10:52.451Z,97073.91
2023-01-22T22:13:20.901Z,97079.81
2023-01-22T22:15:49.104Z,97089.00
2023-01-22T22:18:17.304Z,97088.19
2023-01-22T22:20:46.863Z,97097.06
2023-01-22T22:23:15.137Z,97095.91
2023-01-22T22:25:43.387Z,97101.31
2023-01-22T22:28:11.875Z,97104.28
2023-01-22T22:30:40.094Z,97099.84
2023-01-22T22:33:08.282Z,97100.66
2023-01-22T22:35:36.475Z,97107.56
2023-01-22T22:38:06.209Z,97109.03
2023-01-22T22:40:34.406Z,97107.72
2023-01-22T22:43:02.786Z,97100.50
2023-01-22T22:45:31.009Z,97108.22
2023-01-22T22:47:59.173Z,97102.31
2023-01-22T22:50:27.462Z,97111.66
2023-01-22T22:52:55.602Z,97108.06
2023-01-22T22:55:26.729Z,97111.66
2023-01-22T22:57:56.368Z,97112.13
2023-01-22T23:00:25.171Z,97113.78
2023-01-22T23:02:53.337Z,97116.09
2023-01-22T23:05:21.484Z,97118.72
2023-01-22T23:07:50.022Z,97117.75
2023-01-22T23:10:29.788Z,97116.94
2023-01-22T23:13:00.706Z,97117.91
2023-01-22T23:15:30.371Z,97118.06
2023-01-22T23:17:59.073Z,97123.16
2023-01-22T23:20:27.867Z,97124.16
2023-01-22T23:22:56.658Z,97114.47
2023-01-22T23:25:24.900Z,97119.72
2023-01-22T23:27:53.378Z,97122.34
2023-01-22T23:30:22.929Z,97116.09
2023-01-22T23:32:51.111Z,97116.09
2023-01-22T23:35:19.798Z,97116.72
2023-01-22T23:37:47.935Z,97119.56
2023-01-22T23:40:16.119Z,97124.63
2023-01-22T23:42:44.303Z,97127.44
2023-01-22T23:45:12.680Z,97124.97
2023-01-22T23:47:42.250Z,97128.41
2023-01-22T23:50:11.693Z,97125.78
2023-01-22T23:52:39.855Z,97137.59
2023-01-22T23:55:08.944Z,97136.59
2023-01-22T23:57:37.232Z,97150.41
